Time;durP1;ratioP1;P1;durP2;ratioP2;P2;SDS_P1;SDS_P2;PMS_P1;PMS_P2;Temp;Humidity;BMP_temperature;BMP_pressure;BME280_temperature;BME280_humidity;BME280_pressure;Samples;Min_cycle;Max_cycle;Signal;HPM_P1;HPM_P2
2021/10/10 00:02:16;;;;;;;6.50;3.35;;;7.00;99.90;;;;;;5046777;28;20227;-68
2021/10/10 00:04:42;;;;;;;9.52;3.80;;;7.00;99.90;;;;;;5047105;28;20181;-71
2021/10/10 00:07:08;;;;;;;6.88;4.25;;;6.90;99.90;;;;;;5048555;28;20244;-71
2021/10/10 00:09:34;;;;;;;9.25;4.05;;;6.90;99.90;;;;;;5047228;28;20174;-71
2021/10/10 00:12:00;;;;;;;8.65;3.83;;;6.80;99.90;;;;;;5063680;28;20544;-71
2021/10/10 00:14:26;;;;;;;7.35;3.92;;;6.80;99.90;;;;;;5063770;28;20205;-71
2021/10/10 00:16:52;;;;;;;4.63;3.22;;;6.80;99.90;;;;;;5048607;28;20204;-71
2021/10/10 00:19:17;;;;;;;9.82;3.85;;;6.80;99.90;;;;;;5048578;28;20178;-71
2021/10/10 00:21:43;;;;;;;5.55;3.75;;;6.80;99.90;;;;;;5048369;28;20189;-71
2021/10/10 00:24:09;;;;;;;9.07;4.35;;;6.80;99.90;;;;;;5048420;28;20176;-72
2021/10/10 00:26:35;;;;;;;6.30;3.63;;;6.70;99.90;;;;;;5048418;28;20158;-71
2021/10/10 00:29:01;;;;;;;8.40;3.47;;;6.80;99.90;;;;;;5048472;28;20181;-71
2021/10/10 00:31:27;;;;;;;7.80;4.07;;;6.80;99.90;;;;;;5048293;28;20223;-72
2021/10/10 00:33:53;;;;;;;6.32;3.55;;;6.80;99.90;;;;;;5046955;28;20197;-72
2021/10/10 00:36:19;;;;;;;7.90;4.15;;;6.70;99.90;;;;;;5047578;28;20526;-72
2021/10/10 00:38:45;;;;;;;7.90;4.00;;;6.80;99.90;;;;;;5048109;28;20169;-71
2021/10/10 00:41:11;;;;;;;6.32;3.50;;;6.80;99.90;;;;;;5048170;28;20256;-71
2021/10/10 00:43:37;;;;;;;13.10;4.60;;;6.70;99.90;;;;;;5048156;28;20224;-71
2021/10/10 00:46:03;;;;;;;5.43;3.33;;;6.70;99.90;;;;;;5048016;28;20158;-71
2021/10/10 00:48:29;;;;;;;6.43;3.85;;;6.70;99.90;;;;;;5047950;28;20169;-71
2021/10/10 00:50:55;;;;;;;7.95;4.00;;;6.60;99.90;;;;;;5047800;28;20398;-69
2021/10/10 00:53:23;;;;;;;5.45;2.58;;;6.60;99.90;;;;;;5028430;28;20229;-70
2021/10/10 00:55:55;;;;;;;6.85;3.83;;;6.70;99.90;;;;;;5026773;28;20186;-71
2021/10/10 00:58:22;;;;;;;6.32;3.85;;;6.70;99.90;;;;;;5028126;28;20158;-71
2021/10/10 01:00:51;;;;;;;13.70;3.55;;;6.70;99.90;;;;;;5026630;28;20566;-70
2021/10/10 01:03:17;;;;;;;7.55;3.95;;;6.60;99.90;;;;;;5027987;28;20165;-70
2021/10/10 01:05:44;;;;;;;10.45;3.17;;;6.60;99.90;;;;;;5027981;28;20165;-70
2021/10/10 01:08:14;;;;;;;7.60;3.65;;;6.60;99.90;;;;;;5027898;28;20166;-70
2021/10/10 01:10:41;;;;;;;10.40;4.10;;;6.60;99.90;;;;;;5026194;28;20192;-73
2021/10/10 01:13:07;;;;;;;6.13;3.47;;;6.50;99.90;;;;;;5027587;28;20197;-71
2021/10/10 01:15:34;;;;;;;13.00;3.88;;;6.60;99.90;;;;;;5027596;28;20162;-70
2021/10/10 01:18:00;;;;;;;8.88;4.00;;;6.60;99.90;;;;;;5027511;28;20170;-71
2021/10/10 01:20:27;;;;;;;5.82;3.83;;;6.60;99.90;;;;;;5027619;28;20166;-70
2021/10/10 01:22:54;;;;;;;8.10;4.00;;;6.50;99.90;;;;;;5027597;28;20170;-70
2021/10/10 01:25:20;;;;;;;6.97;3.55;;;6.60;99.90;;;;;;5026245;28;20177;-70
2021/10/10 01:27:46;;;;;;;9.20;4.18;;;6.60;99.90;;;;;;5026287;28;20170;-70
2021/10/10 01:30:12;;;;;;;9.52;4.05;;;6.70;99.90;;;;;;5027789;28;20225;-70
2021/10/10 01:32:38;;;;;;;7.40;4.00;;;6.70;99.90;;;;;;5026285;28;20205;-70
2021/10/10 01:35:04;;;;;;;9.35;3.70;;;6.80;99.90;;;;;;5027830;28;20154;-71
2021/10/10 01:37:30;;;;;;;5.18;3.65;;;6.80;99.90;;;;;;5027695;28;20162;-70
2021/10/10 01:39:56;;;;;;;8.10;4.00;;;6.90;99.90;;;;;;5026779;28;20207;-71
2021/10/10 01:42:22;;;;;;;11.60;3.42;;;6.80;99.90;;;;;;5029634;28;20233;-71
2021/10/10 01:44:48;;;;;;;8.85;4.07;;;6.90;99.90;;;;;;5047424;28;20170;-70
2021/10/10 01:47:14;;;;;;;10.73;3.30;;;6.90;99.90;;;;;;5049637;28;20203;-70
2021/10/10 01:49:39;;;;;;;10.90;4.07;;;6.90;99.90;;;;;;5033272;28;20261;-71
2021/10/10 01:52:06;;;;;;;17.35;3.33;;;6.90;99.90;;;;;;5051010;28;20276;-71
2021/10/10 01:54:31;;;;;;;6.20;3.85;;;7.00;99.90;;;;;;5051131;28;20209;-71
2021/10/10 01:56:57;;;;;;;9.57;3.95;;;7.00;99.90;;;;;;5033225;28;20177;-71
2021/10/10 01:59:23;;;;;;;10.07;3.78;;;6.90;99.90;;;;;;5050984;28;20161;-71
2021/10/10 02:01:49;;;;;;;5.63;3.78;;;6.90;99.90;;;;;;5051073;28;20205;-70
2021/10/10 02:04:15;;;;;;;6.43;3.65;;;6.90;99.90;;;;;;5051012;28;20166;-71
2021/10/10 02:06:41;;;;;;;5.05;3.28;;;6.90;99.90;;;;;;5032906;28;20173;-71
2021/10/10 02:09:07;;;;;;;7.03;3.72;;;6.80;99.90;;;;;;5050881;28;20192;-70
2021/10/10 02:11:33;;;;;;;6.20;3.53;;;6.80;99.90;;;;;;5050790;28;20553;-70
2021/10/10 02:13:58;;;;;;;4.55;2.92;;;6.80;99.90;;;;;;5030862;28;20184;-70
2021/10/10 02:16:24;;;;;;;9.40;3.60;;;6.80;99.90;;;;;;5030938;28;20166;-70
2021/10/10 02:18:50;;;;;;;5.53;2.90;;;6.80;99.90;;;;;;5034929;28;20220;-71
2021/10/10 02:21:16;;;;;;;6.45;3.55;;;6.70;99.90;;;;;;5050558;28;20209;-70
2021/10/10 02:23:42;;;;;;;5.22;3.42;;;6.70;99.90;;;;;;5050626;28;20182;-71
2021/10/10 02:26:08;;;;;;;8.80;3.78;;;6.60;99.90;;;;;;5050449;28;20164;-70
2021/10/10 02:28:34;;;;;;;12.32;3.75;;;6.60;99.90;;;;;;5050274;28;20201;-70
2021/10/10 02:30:59;;;;;;;5.65;3.35;;;6.60;99.90;;;;;;5050173;28;20197;-71
2021/10/10 02:33:25;;;;;;;10.35;3.42;;;6.60;99.90;;;;;;5050177;28;20190;-70
2021/10/10 02:35:51;;;;;;;8.52;3.80;;;6.50;99.90;;;;;;5050258;28;20215;-71
2021/10/10 02:38:17;;;;;;;9.10;3.80;;;6.50;99.90;;;;;;5032338;28;20284;-71
2021/10/10 02:40:43;;;;;;;7.68;3.90;;;6.50;99.90;;;;;;5032220;28;20289;-71
2021/10/10 02:43:09;;;;;;;7.60;3.65;;;6.60;99.90;;;;;;5050235;28;20173;-70
2021/10/10 02:45:35;;;;;;;10.68;4.32;;;6.60;99.90;;;;;;5032344;28;20207;-70
2021/10/10 02:48:01;;;;;;;10.95;3.97;;;6.60;99.90;;;;;;5032494;28;20630;-70
2021/10/10 02:50:27;;;;;;;7.03;3.53;;;6.50;99.90;;;;;;5050281;28;20224;-71
2021/10/10 02:52:52;;;;;;;6.85;3.22;;;6.50;99.90;;;;;;5049802;28;20225;-71
2021/10/10 02:55:18;;;;;;;7.72;3.55;;;6.60;99.90;;;;;;5050218;28;20233;-71
2021/10/10 02:57:44;;;;;;;7.82;3.10;;;6.60;99.90;;;;;;5049404;28;20269;-70
2021/10/10 03:00:10;;;;;;;9.95;3.83;;;6.50;99.90;;;;;;5031888;28;20201;-71
2021/10/10 03:02:36;;;;;;;8.35;3.85;;;6.50;99.90;;;;;;5049816;28;20212;-69
2021/10/10 03:05:03;;;;;;;5.53;3.28;;;6.50;99.90;;;;;;5049882;28;20611;-71
2021/10/10 03:07:29;;;;;;;6.40;3.75;;;6.50;99.90;;;;;;5031974;28;20170;-71
2021/10/10 03:09:55;;;;;;;6.95;3.33;;;6.50;99.90;;;;;;5023595;28;20205;-71
2021/10/10 03:12:21;;;;;;;5.95;3.30;;;6.40;99.90;;;;;;5029962;28;20164;-71
2021/10/10 03:14:46;;;;;;;6.90;3.70;;;6.40;99.90;;;;;;5029987;28;20233;-70
2021/10/10 03:17:12;;;;;;;7.47;4.10;;;6.50;99.90;;;;;;5029850;28;20211;-70
2021/10/10 03:19:38;;;;;;;7.20;3.55;;;6.40;99.90;;;;;;5011927;28;20267;-70
2021/10/10 03:22:04;;;;;;;8.38;3.47;;;6.30;99.90;;;;;;5029798;28;20190;-71
2021/10/10 03:24:30;;;;;;;10.63;4.70;;;6.20;99.90;;;;;;5011906;28;20189;-71
2021/10/10 03:26:56;;;;;;;10.27;3.83;;;6.00;99.90;;;;;;5029740;28;20225;-70
2021/10/10 03:29:22;;;;;;;5.50;3.75;;;5.80;99.90;;;;;;5029679;28;20174;-70
2021/10/10 03:31:48;;;;;;;5.75;3.83;;;5.80;99.90;;;;;;5029813;28;20176;-70
2021/10/10 03:34:14;;;;;;;5.65;2.97;;;5.70;99.90;;;;;;5029476;28;20201;-70
2021/10/10 03:36:40;;;;;;;8.23;3.72;;;5.60;99.90;;;;;;5011644;28;20174;-70
2021/10/10 03:39:06;;;;;;;5.82;3.97;;;5.60;99.90;;;;;;5029400;28;20177;-70
2021/10/10 03:41:32;;;;;;;9.80;4.13;;;5.60;99.90;;;;;;5029171;28;20186;-70
2021/10/10 03:43:58;;;;;;;4.07;3.60;;;5.70;99.90;;;;;;5029259;28;20190;-70
2021/10/10 03:46:24;;;;;;;6.72;4.40;;;5.60;99.90;;;;;;5011469;28;20202;-70
2021/10/10 03:48:50;;;;;;;8.13;3.45;;;5.60;99.90;;;;;;5011283;28;20196;-70
2021/10/10 03:51:15;;;;;;;6.40;4.22;;;5.50;99.90;;;;;;5028898;28;20197;-70
2021/10/10 03:56:26;;;;;;;7.28;4.00;;;5.60;99.90;;;;;;5029641;28;20200;-71
2021/10/10 03:58:55;;;;;;;8.40;4.90;;;5.60;99.90;;;;;;5011512;28;20608;-69
2021/10/10 04:01:21;;;;;;;6.18;3.42;;;5.60;99.90;;;;;;5011286;28;20258;-69
2021/10/10 04:03:47;;;;;;;6.90;3.42;;;5.50;99.90;;;;;;5011621;28;20628;-70
2021/10/10 04:06:13;;;;;;;8.43;3.30;;;5.60;99.90;;;;;;5029258;28;20177;-69
2021/10/10 04:08:43;;;;;;;10.88;4.00;;;5.60;99.90;;;;;;5029221;28;20172;-71
2021/10/10 04:11:11;;;;;;;6.63;3.83;;;5.60;99.90;;;;;;5028081;28;20596;-70
2021/10/10 04:13:38;;;;;;;7.95;4.53;;;5.60;99.90;;;;;;5028972;28;20186;-70
2021/10/10 04:16:04;;;;;;;7.47;3.90;;;5.60;99.90;;;;;;5028914;28;20166;-71
2021/10/10 04:18:30;;;;;;;9.18;4.13;;;5.60;99.90;;;;;;5028892;28;20177;-70
2021/10/10 04:20:58;;;;;;;8.52;4.03;;;5.50;99.90;;;;;;5028820;28;20729;-70
2021/10/10 04:23:24;;;;;;;9.00;4.45;;;5.60;99.90;;;;;;5028888;28;20287;-70
2021/10/10 04:25:50;;;;;;;9.05;4.25;;;5.60;99.90;;;;;;5028877;28;20197;-70
2021/10/10 04:28:16;;;;;;;9.48;4.35;;;5.60;99.90;;;;;;5010916;28;20178;-70
2021/10/10 04:30:42;;;;;;;8.60;3.90;;;5.70;99.90;;;;;;5028675;28;20189;-70
2021/10/10 04:33:09;;;;;;;7.97;4.20;;;5.70;99.90;;;;;;5010841;28;20225;-70
2021/10/10 04:35:35;;;;;;;6.53;3.88;;;5.70;99.90;;;;;;5011014;28;20674;-70
2021/10/10 04:38:01;;;;;;;6.68;4.07;;;5.70;99.90;;;;;;5028602;28;20162;-72
2021/10/10 04:40:27;;;;;;;7.55;3.25;;;5.90;99.90;;;;;;5010760;28;20194;-69
2021/10/10 04:42:53;;;;;;;7.80;3.67;;;5.90;99.90;;;;;;5028431;28;20161;-69
2021/10/10 04:45:19;;;;;;;6.30;3.40;;;6.00;99.90;;;;;;5028538;28;20221;-69
2021/10/10 04:47:45;;;;;;;13.32;3.90;;;6.00;99.90;;;;;;5028433;28;20193;-70
2021/10/10 04:50:11;;;;;;;6.88;3.35;;;6.00;99.90;;;;;;5028320;28;20666;-69
2021/10/10 04:52:37;;;;;;;9.02;4.13;;;6.00;99.90;;;;;;5028135;28;20747;-71
2021/10/10 04:55:04;;;;;;;8.02;3.90;;;6.00;99.90;;;;;;5028266;28;20170;-70
2021/10/10 04:57:30;;;;;;;7.43;3.85;;;6.00;99.90;;;;;;5010555;28;20209;-70
2021/10/10 04:59:56;;;;;;;9.30;3.92;;;6.00;99.90;;;;;;5010432;28;20206;-70
2021/10/10 05:02:23;;;;;;;9.80;4.65;;;6.00;99.90;;;;;;5028224;28;20162;-70
2021/10/10 05:04:50;;;;;;;9.65;3.85;;;6.00;99.90;;;;;;5028269;28;20196;-69
2021/10/10 05:07:17;;;;;;;8.75;3.95;;;6.10;99.90;;;;;;5028212;28;20229;-70
2021/10/10 05:09:43;;;;;;;5.85;3.25;;;6.00;99.90;;;;;;5010337;28;20209;-70
2021/10/10 05:12:09;;;;;;;9.15;4.07;;;6.10;99.90;;;;;;5028187;28;20166;-70
2021/10/10 05:14:35;;;;;;;8.60;4.35;;;6.10;99.90;;;;;;5028080;28;20190;-70
2021/10/10 05:17:01;;;;;;;6.40;4.05;;;6.10;99.90;;;;;;5028156;28;20159;-69
2021/10/10 05:19:27;;;;;;;6.18;4.03;;;6.20;99.90;;;;;;5028002;28;20643;-70
2021/10/10 05:21:53;;;;;;;10.18;4.00;;;6.30;99.90;;;;;;5029908;28;20150;-70
2021/10/10 05:24:19;;;;;;;10.40;4.45;;;6.30;99.90;;;;;;5032078;28;20232;-70
2021/10/10 05:26:45;;;;;;;6.25;3.85;;;6.30;99.90;;;;;;5032155;28;20527;-71
2021/10/10 05:29:11;;;;;;;8.30;4.45;;;6.30;99.90;;;;;;5032045;28;20162;-70
2021/10/10 05:31:36;;;;;;;12.52;4.43;;;6.40;99.90;;;;;;5032025;28;20194;-70
2021/10/10 05:34:02;;;;;;;8.40;4.95;;;6.40;99.90;;;;;;5031869;28;20194;-70
2021/10/10 05:36:28;;;;;;;7.38;4.20;;;6.30;99.90;;;;;;5031865;28;20163;-70
2021/10/10 05:38:54;;;;;;;8.70;4.47;;;6.30;99.90;;;;;;5031995;28;20189;-70
2021/10/10 05:41:20;;;;;;;10.20;4.65;;;6.30;99.90;;;;;;5031770;28;20253;-70
2021/10/10 05:43:46;;;;;;;8.38;4.00;;;6.30;99.90;;;;;;5031901;28;20171;-70
2021/10/10 05:46:12;;;;;;;7.47;4.05;;;6.30;99.90;;;;;;5014018;28;20172;-70
2021/10/10 05:48:38;;;;;;;10.70;3.95;;;6.40;99.90;;;;;;5014002;28;20197;-70
2021/10/10 05:51:04;;;;;;;10.55;4.60;;;6.50;99.90;;;;;;5031452;28;20197;-70
2021/10/10 05:53:30;;;;;;;9.02;4.10;;;6.60;99.90;;;;;;5031682;28;20213;-70
2021/10/10 05:56:00;;;;;;;8.68;4.70;;;6.60;99.90;;;;;;5031456;28;20165;-70
2021/10/10 05:58:28;;;;;;;10.48;4.25;;;6.70;99.90;;;;;;5031581;28;20158;-70
2021/10/10 06:00:54;;;;;;;8.23;4.53;;;6.80;99.90;;;;;;5031356;28;20213;-69
2021/10/10 06:03:21;;;;;;;11.88;4.57;;;6.70;99.90;;;;;;5031514;28;20167;-70
2021/10/10 06:05:47;;;;;;;12.68;4.35;;;6.70;99.90;;;;;;5031255;28;20174;-71
2021/10/10 06:08:14;;;;;;;6.05;4.35;;;6.80;99.90;;;;;;5031436;28;20163;-70
2021/10/10 06:10:42;;;;;;;6.95;4.40;;;6.90;99.90;;;;;;5031238;28;20225;-70
2021/10/10 06:13:08;;;;;;;8.80;4.47;;;6.90;99.90;;;;;;5031184;28;20193;-70
2021/10/10 06:15:34;;;;;;;9.43;4.70;;;6.80;99.90;;;;;;5031363;28;20161;-70
2021/10/10 06:18:01;;;;;;;10.68;4.53;;;6.60;99.90;;;;;;5031226;28;20249;-70
2021/10/10 06:20:27;;;;;;;9.93;4.38;;;6.40;99.90;;;;;;5013344;28;20202;-70
2021/10/10 06:22:53;;;;;;;5.63;3.85;;;6.40;99.90;;;;;;5030979;28;20249;-71
2021/10/10 06:25:19;;;;;;;7.55;4.47;;;6.30;99.90;;;;;;5030844;28;20158;-71
2021/10/10 06:27:45;;;;;;;8.52;4.07;;;6.20;99.90;;;;;;5013263;28;20549;-70
2021/10/10 06:30:11;;;;;;;12.18;4.68;;;6.20;99.90;;;;;;5030870;28;20190;-71
2021/10/10 06:32:38;;;;;;;6.95;4.00;;;6.20;99.90;;;;;;5029988;28;20165;-71
2021/10/10 06:35:08;;;;;;;16.17;5.05;;;6.30;99.90;;;;;;5012744;28;20232;-70
2021/10/10 06:37:34;;;;;;;9.98;4.72;;;6.30;99.90;;;;;;5030563;28;20165;-70
2021/10/10 06:40:01;;;;;;;11.18;4.72;;;6.40;99.90;;;;;;5030621;28;20189;-71
2021/10/10 06:42:28;;;;;;;6.97;4.50;;;6.50;99.90;;;;;;5030434;28;20221;-70
2021/10/10 06:44:54;;;;;;;9.43;3.92;;;6.60;99.90;;;;;;5012919;28;20177;-71
2021/10/10 06:47:20;;;;;;;6.88;4.57;;;6.60;99.90;;;;;;5030548;28;20209;-69
2021/10/10 06:49:46;;;;;;;7.90;4.38;;;6.60;99.90;;;;;;5012952;28;20205;-70
2021/10/10 06:52:13;;;;;;;6.75;4.40;;;6.50;99.90;;;;;;5030274;28;20220;-70
2021/10/10 06:54:40;;;;;;;8.15;3.97;;;6.60;99.90;;;;;;5030384;28;20217;-71
2021/10/10 06:57:06;;;;;;;9.05;4.78;;;6.60;99.90;;;;;;5030407;28;20170;-70
2021/10/10 06:59:32;;;;;;;10.95;5.22;;;6.60;99.90;;;;;;5030296;28;20687;-70
2021/10/10 07:01:58;;;;;;;7.60;4.80;;;6.60;99.90;;;;;;5030219;28;20222;-70
2021/10/10 07:04:24;;;;;;;12.98;4.85;;;6.80;99.90;;;;;;5030148;28;20216;-70
2021/10/10 07:06:50;;;;;;;6.90;4.20;;;6.80;99.90;;;;;;5030142;28;20232;-69
2021/10/10 07:09:16;;;;;;;9.45;4.55;;;6.80;99.90;;;;;;5012335;28;20173;-70
2021/10/10 07:11:42;;;;;;;7.35;4.45;;;6.90;99.90;;;;;;5030222;28;20193;-71
2021/10/10 07:14:08;;;;;;;8.63;4.75;;;7.00;99.90;;;;;;5012282;28;20201;-70
2021/10/10 07:16:34;;;;;;;16.23;4.55;;;7.00;99.90;;;;;;5012304;28;20170;-70
2021/10/10 07:19:02;;;;;;;7.50;4.18;;;7.00;99.90;;;;;;5029840;28;20205;-70
2021/10/10 07:26:37;;;;;;;7.60;3.90;;;7.10;99.90;;;;;;5029400;28;20209;-70
2021/10/10 07:29:05;;;;;;;8.02;4.13;;;7.10;99.90;;;;;;5029309;28;20162;-70
2021/10/10 07:31:31;;;;;;;10.45;4.72;;;7.00;99.90;;;;;;5029543;28;20201;-70
2021/10/10 07:33:57;;;;;;;7.50;4.57;;;7.10;99.90;;;;;;5011919;28;20269;-69
2021/10/10 07:36:23;;;;;;;6.72;4.38;;;7.10;99.90;;;;;;5029698;28;20158;-71
2021/10/10 07:38:48;;;;;;;10.30;4.60;;;7.10;99.90;;;;;;5029658;28;20155;-70
2021/10/10 07:41:14;;;;;;;10.20;4.97;;;7.10;99.90;;;;;;5029584;28;20197;-71
2021/10/10 07:43:42;;;;;;;6.72;4.60;;;7.10;99.90;;;;;;5029423;28;20166;-70
2021/10/10 07:46:20;;;;;;;8.73;5.25;;;7.10;99.90;;;;;;5029317;28;20162;-70
2021/10/10 07:48:47;;;;;;;11.25;5.22;;;7.10;99.90;;;;;;5029350;28;20192;-70
2021/10/10 07:51:14;;;;;;;11.40;5.43;;;7.00;99.90;;;;;;5029190;28;20209;-69
2021/10/10 07:53:41;;;;;;;8.82;5.82;;;7.00;99.90;;;;;;5011430;28;20248;-70
2021/10/10 07:56:06;;;;;;;11.60;5.38;;;6.90;99.90;;;;;;5029474;28;20166;-70
2021/10/10 07:58:32;;;;;;;10.75;5.18;;;6.90;99.90;;;;;;5029307;28;20186;-70
2021/10/10 08:00:59;;;;;;;8.57;4.88;;;6.80;99.90;;;;;;5029012;28;20197;-70
2021/10/10 08:03:25;;;;;;;9.48;5.40;;;6.90;99.90;;;;;;5029222;28;20166;-70
2021/10/10 08:05:51;;;;;;;9.20;4.95;;;7.00;99.90;;;;;;5029047;28;20236;-70
2021/10/10 08:08:17;;;;;;;9.07;4.78;;;6.90;99.90;;;;;;5029237;28;20170;-70
2021/10/10 08:10:43;;;;;;;11.27;5.70;;;7.00;99.90;;;;;;5029196;28;20204;-70
2021/10/10 08:13:09;;;;;;;16.45;6.97;;;7.00;99.90;;;;;;5029163;28;20386;-70
2021/10/10 08:15:35;;;;;;;16.17;6.78;;;7.10;99.90;;;;;;5029115;28;20158;-70
2021/10/10 08:18:01;;;;;;;12.10;6.38;;;7.20;99.90;;;;;;5029138;28;20196;-70
2021/10/10 08:20:27;;;;;;;11.68;7.28;;;7.30;99.90;;;;;;5028904;28;20277;-70
2021/10/10 08:22:53;;;;;;;13.07;6.70;;;7.20;99.90;;;;;;5029173;28;20677;-70
2021/10/10 08:25:19;;;;;;;10.65;5.50;;;7.30;99.90;;;;;;5011271;28;20197;-70
2021/10/10 08:27:46;;;;;;;12.85;6.07;;;7.40;99.90;;;;;;5028819;28;20161;-70
2021/10/10 08:30:17;;;;;;;9.85;5.72;;;7.50;99.90;;;;;;5028707;28;20194;-71
2021/10/10 08:32:45;;;;;;;7.95;5.20;;;7.50;99.90;;;;;;5028654;28;20162;-71
2021/10/10 08:35:12;;;;;;;16.13;8.13;;;7.40;99.90;;;;;;5010761;28;20170;-70
2021/10/10 08:37:39;;;;;;;13.73;6.50;;;7.30;99.90;;;;;;5028682;28;20162;-70
2021/10/10 08:40:06;;;;;;;11.57;5.93;;;7.20;99.90;;;;;;5028467;28;20182;-70
2021/10/10 08:42:37;;;;;;;16.08;6.68;;;7.10;99.90;;;;;;5028657;28;20292;-70
2021/10/10 08:47:44;;;;;;;15.95;7.40;;;7.20;99.90;;;;;;5028513;28;20166;-70
2021/10/10 08:50:23;;;;;;;10.95;5.78;;;7.30;99.90;;;;;;5027959;28;20198;-70
2021/10/10 08:52:52;;;;;;;11.20;6.35;;;7.20;99.90;;;;;;5028107;28;20217;-71
2021/10/10 08:55:18;;;;;;;10.43;5.53;;;7.10;99.90;;;;;;5028064;28;20208;-70
2021/10/10 08:57:46;;;;;;;9.32;5.95;;;7.10;99.90;;;;;;5027735;28;20154;-70
2021/10/10 09:00:16;;;;;;;9.57;5.75;;;7.10;99.90;;;;;;5028074;28;20220;-70
2021/10/10 09:02:46;;;;;;;11.95;6.05;;;7.10;99.90;;;;;;5010474;28;20166;-70
2021/10/10 09:05:13;;;;;;;9.13;5.53;;;7.10;99.90;;;;;;5028152;28;20173;-70
2021/10/10 09:07:39;;;;;;;11.68;6.20;;;7.00;99.90;;;;;;5028075;28;20173;-70
2021/10/10 09:10:18;;;;;;;10.20;5.18;;;6.90;99.90;;;;;;5028022;28;20194;-70
2021/10/10 09:12:45;;;;;;;9.18;5.68;;;7.00;99.90;;;;;;5027940;28;20169;-70
2021/10/10 09:15:17;;;;;;;7.57;5.47;;;7.00;99.90;;;;;;5028110;28;20154;-70
2021/10/10 09:17:57;;;;;;;13.02;5.50;;;7.20;99.90;;;;;;5014037;28;20170;-70
2021/10/10 09:20:55;;;;;;;8.18;4.75;;;7.30;99.90;;;;;;5023199;28;20273;-70
2021/10/10 09:23:21;;;;;;;7.32;4.70;;;7.30;99.90;;;;;;4948795;29;20219;-71
2021/10/10 09:25:55;;;;;;;11.95;5.50;;;7.30;99.90;;;;;;4948327;29;20173;-70
2021/10/10 09:28:22;;;;;;;8.02;4.53;;;7.20;99.90;;;;;;4948157;29;20169;-71
2021/10/10 09:31:00;;;;;;;7.68;5.10;;;7.30;99.90;;;;;;4948070;29;20204;-70
2021/10/10 09:33:45;;;;;;;14.23;5.35;;;7.30;99.90;;;;;;4947884;29;20208;-70
2021/10/10 09:36:19;;;;;;;17.63;5.75;;;7.30;99.90;;;;;;4966860;29;20175;-71
2021/10/10 09:38:57;;;;;;;10.80;5.55;;;7.40;99.90;;;;;;4967463;29;20192;-70
2021/10/10 09:44:03;;;;;;;8.85;5.55;;;7.20;99.90;;;;;;4967511;29;20244;-70
2021/10/10 09:46:30;;;;;;;9.02;5.93;;;7.20;99.90;;;;;;4967235;29;20761;-71
2021/10/10 09:48:57;;;;;;;10.68;6.38;;;7.20;99.90;;;;;;4967085;29;20589;-69
2021/10/10 09:51:36;;;;;;;10.60;6.38;;;7.20;99.90;;;;;;4971848;28;20203;-69
2021/10/10 09:54:06;;;;;;;11.25;6.82;;;7.10;99.90;;;;;;5006004;28;20202;-70
2021/10/10 09:56:33;;;;;;;16.35;8.90;;;7.00;99.90;;;;;;5006226;28;20174;-71
2021/10/10 09:59:00;;;;;;;10.35;6.65;;;7.20;99.90;;;;;;5038198;28;20282;-71
2021/10/10 10:01:29;;;;;;;11.95;6.93;;;7.10;99.90;;;;;;5066003;28;20209;-70
2021/10/10 10:04:06;;;;;;;18.67;6.65;;;7.10;99.90;;;;;;5066049;28;20230;-70
2021/10/10 10:06:37;;;;;;;11.60;6.38;;;7.20;99.90;;;;;;5067558;28;20186;-70
2021/10/10 10:09:06;;;;;;;9.70;6.53;;;7.40;99.90;;;;;;5069789;28;20404;-70
2021/10/10 10:11:40;;;;;;;8.48;5.13;;;7.40;99.90;;;;;;5071040;28;20195;-71
2021/10/10 10:14:10;;;;;;;16.45;5.60;;;7.50;99.90;;;;;;5070985;28;20188;-71
2021/10/10 10:16:43;;;;;;;8.80;5.43;;;7.70;99.90;;;;;;5071146;28;20153;-69
2021/10/10 10:19:21;;;;;;;15.15;5.00;;;7.70;99.90;;;;;;5069609;28;20184;-70
2021/10/10 10:21:51;;;;;;;8.68;4.65;;;7.70;99.90;;;;;;5069551;28;20160;-70
2021/10/10 10:24:19;;;;;;;10.68;4.88;;;7.70;99.90;;;;;;5069238;28;20643;-70
2021/10/10 10:26:46;;;;;;;8.35;4.70;;;7.70;99.90;;;;;;5083991;28;20221;-69
2021/10/10 10:29:15;;;;;;;11.18;5.22;;;7.50;99.90;;;;;;5090950;28;20182;-72
2021/10/10 10:31:45;;;;;;;8.00;5.22;;;7.50;99.90;;;;;;5089429;28;20229;-71
2021/10/10 10:34:31;;;;;;;10.10;5.70;;;7.50;99.90;;;;;;5090642;28;20176;-70
2021/10/10 10:37:14;;;;;;;12.65;5.60;;;7.40;99.90;;;;;;5090811;28;20243;-72
2021/10/10 10:39:43;;;;;;;9.88;5.05;;;7.50;99.90;;;;;;5090464;28;20164;-69
2021/10/10 10:42:33;;;;;;;14.63;6.10;;;7.60;99.90;;;;;;5090576;28;20192;-70
2021/10/10 10:45:00;;;;;;;9.15;5.63;;;7.70;99.90;;;;;;5079519;28;20180;-70
2021/10/10 10:47:40;;;;;;;13.32;6.15;;;7.70;99.90;;;;;;5089245;28;20177;-69
2021/10/10 10:50:13;;;;;;;11.77;5.78;;;7.70;99.90;;;;;;5090502;28;20240;-70
2021/10/10 10:52:42;;;;;;;8.85;5.40;;;7.60;99.90;;;;;;5063558;28;20249;-70
2021/10/10 10:55:22;;;;;;;10.88;5.80;;;7.60;99.90;;;;;;5068596;28;20198;-70
2021/10/10 10:57:52;;;;;;;10.35;5.47;;;7.60;99.90;;;;;;5070264;28;20243;-70
2021/10/10 11:00:24;;;;;;;13.50;5.95;;;7.70;99.90;;;;;;5068699;28;20244;-70
2021/10/10 11:03:03;;;;;;;12.23;5.90;;;7.80;99.90;;;;;;5068716;28;20268;-71
2021/10/10 11:05:40;;;;;;;12.35;6.07;;;8.00;99.90;;;;;;5068687;28;20164;-71
2021/10/10 11:08:30;;;;;;;7.95;4.82;;;8.00;99.90;;;;;;5070017;28;20714;-71
2021/10/10 11:11:04;;;;;;;8.95;5.55;;;8.00;99.90;;;;;;5069951;28;20228;-71
2021/10/10 11:13:42;;;;;;;10.02;5.43;;;8.10;99.90;;;;;;5068222;28;20234;-71
2021/10/10 11:16:19;;;;;;;7.32;4.60;;;8.30;99.90;;;;;;5069756;28;20153;-71
2021/10/10 11:18:47;;;;;;;14.00;4.97;;;8.40;99.90;;;;;;5060150;28;20202;-71
2021/10/10 11:21:16;;;;;;;9.00;4.50;;;8.40;99.90;;;;;;5049759;28;20157;-70
2021/10/10 11:23:42;;;;;;;10.43;4.88;;;8.20;99.90;;;;;;5064189;28;20204;-70
2021/10/10 11:26:11;;;;;;;7.85;4.68;;;8.10;99.90;;;;;;5064042;28;20215;-70
2021/10/10 11:28:44;;;;;;;8.85;3.90;;;8.00;99.90;;;;;;5060928;28;20164;-70
2021/10/10 11:31:29;;;;;;;8.85;4.63;;;7.90;99.90;;;;;;5053279;28;20330;-70
2021/10/10 11:33:59;;;;;;;9.15;5.60;;;8.00;99.90;;;;;;5051664;28;20185;-70
2021/10/10 11:36:34;;;;;;;9.63;5.32;;;8.20;99.90;;;;;;5068710;28;20196;-70
2021/10/10 11:39:00;;;;;;;9.73;4.60;;;8.20;99.90;;;;;;5067119;28;20199;-70
2021/10/10 11:41:28;;;;;;;7.90;4.45;;;8.20;99.90;;;;;;5069263;28;20164;-70
2021/10/10 11:44:07;;;;;;;6.78;4.25;;;8.10;99.90;;;;;;5069293;28;20172;-70
2021/10/10 11:46:49;;;;;;;8.93;4.95;;;8.10;99.90;;;;;;5068802;28;20208;-70
2021/10/10 11:49:24;;;;;;;11.65;5.15;;;8.20;99.90;;;;;;5067332;28;20184;-70
2021/10/10 11:51:51;;;;;;;7.28;4.80;;;8.10;99.90;;;;;;5062660;28;20235;-70
2021/10/10 11:54:35;;;;;;;8.98;5.07;;;8.10;99.90;;;;;;5048169;28;20274;-70
2021/10/10 11:57:02;;;;;;;10.40;4.80;;;8.10;99.90;;;;;;5048914;28;20212;-69
2021/10/10 11:59:28;;;;;;;16.73;3.80;;;8.00;99.90;;;;;;5049051;28;20183;-69
2021/10/10 12:01:55;;;;;;;9.50;4.80;;;8.10;99.90;;;;;;5031046;28;20169;-69
2021/10/10 12:04:23;;;;;;;8.95;4.35;;;8.20;99.90;;;;;;5048888;28;20168;-70
2021/10/10 12:06:50;;;;;;;8.93;4.53;;;8.10;99.90;;;;;;5030711;28;20201;-71
2021/10/10 12:09:17;;;;;;;10.15;4.30;;;8.00;99.90;;;;;;5031339;28;20180;-70
2021/10/10 12:12:14;;;;;;;8.18;5.07;;;8.00;99.90;;;;;;5048536;28;20170;-71
2021/10/10 12:14:54;;;;;;;8.93;4.38;;;8.10;99.90;;;;;;5030574;28;20221;-72
2021/10/10 12:17:32;;;;;;;8.30;4.45;;;8.10;99.90;;;;;;5030710;28;20240;-72
2021/10/10 12:20:17;;;;;;;8.60;4.25;;;8.20;99.90;;;;;;5048536;28;20603;-71
2021/10/10 12:22:59;;;;;;;7.60;3.67;;;8.20;99.90;;;;;;5030688;28;20168;-72
2021/10/10 12:25:33;;;;;;;9.90;4.53;;;8.10;99.90;;;;;;5048518;28;20189;-71
2021/10/10 12:28:03;;;;;;;4.82;3.53;;;8.20;99.90;;;;;;5048477;28;20204;-71
2021/10/10 12:30:39;;;;;;;11.75;4.90;;;8.30;99.90;;;;;;5047731;28;20153;-71
2021/10/10 12:33:22;;;;;;;9.48;5.03;;;8.30;99.90;;;;;;5048237;28;20164;-70
2021/10/10 12:35:53;;;;;;;6.82;3.58;;;8.40;99.90;;;;;;5028673;28;20286;-70
2021/10/10 12:38:50;;;;;;;7.90;4.47;;;8.40;99.90;;;;;;5010588;28;20181;-71
2021/10/10 12:41:23;;;;;;;7.80;5.13;;;8.50;99.90;;;;;;5020324;28;20186;-70
2021/10/10 12:44:03;;;;;;;13.15;6.05;;;8.60;99.90;;;;;;5010472;28;20166;-70
2021/10/10 12:46:46;;;;;;;9.77;4.45;;;8.60;99.90;;;;;;5028240;28;20193;-70
2021/10/10 12:49:12;;;;;;;8.30;5.18;;;8.60;99.90;;;;;;5028130;28;20185;-70
2021/10/10 12:51:48;;;;;;;9.02;4.95;;;8.60;99.90;;;;;;5028101;28;20683;-70
2021/10/10 12:54:17;;;;;;;6.72;4.88;;;8.60;99.90;;;;;;5028346;28;20244;-70
2021/10/10 12:56:58;;;;;;;8.60;4.50;;;8.60;99.90;;;;;;5028040;28;20299;-70
2021/10/10 12:59:24;;;;;;;11.10;4.95;;;8.60;99.90;;;;;;5028159;28;20177;-70
2021/10/10 13:01:51;;;;;;;7.28;5.38;;;8.60;99.90;;;;;;5025237;28;20177;-70
2021/10/10 13:04:16;;;;;;;11.50;5.88;;;8.60;99.90;;;;;;5047622;28;20228;-70
2021/10/10 13:06:44;;;;;;;11.50;5.88;;;8.70;99.90;;;;;;5047846;28;20161;-70
2021/10/10 13:09:11;;;;;;;8.35;4.93;;;8.70;99.90;;;;;;5029989;28;20173;-70
2021/10/10 13:11:38;;;;;;;9.88;5.03;;;8.80;99.90;;;;;;5047953;28;20158;-70
2021/10/10 13:14:04;;;;;;;9.73;5.25;;;8.90;99.90;;;;;;5029732;28;20208;-70